createdAt,value
2018-11-02T05:35:10.653Z,4
2018-11-02T05:36:22.672Z,4
2018-11-02T05:37:34.722Z,4
2018-11-02T05:38:46.994Z,4
2018-11-02T05:39:59.199Z,4
2018-11-02T05:41:11.305Z,4
2018-11-02T05:42:23.507Z,4
2018-11-02T05:43:35.704Z,4
2018-11-02T05:44:47.997Z,4
2018-11-02T05:46:00.181Z,4
2018-11-02T05:47:12.390Z,4
2018-11-02T05:48:24.580Z,4
2018-11-02T05:49:36.677Z,4
2018-11-02T05:50:48.962Z,0
2018-11-02T05:53:13.331Z,4
2018-11-02T05:54:25.535Z,0
2018-11-02T05:55:37.741Z,0
2018-11-02T05:56:49.843Z,4
2018-11-02T05:58:02.045Z,4
2018-11-02T05:59:16.279Z,4
2018-11-02T06:00:26.520Z,4
2018-11-02T06:01:38.727Z,4
2018-11-02T06:02:50.902Z,8
2018-11-02T06:05:15.294Z,8
2018-11-02T06:06:27.398Z,8
2018-11-02T06:07:39.674Z,12
2018-11-02T06:08:51.793Z,16
2018-11-02T06:10:03.991Z,16
2018-11-02T06:11:16.264Z,20
2018-11-02T06:12:28.399Z,24
2018-11-02T06:13:40.671Z,28
2018-11-02T06:14:54.089Z,40
2018-11-02T06:17:17.246Z,44
2018-11-02T06:18:32.450Z,52
2018-11-02T06:19:41.652Z,52
2018-11-02T06:20:53.923Z,60
2018-11-02T06:22:05.963Z,76
2018-11-02T06:23:18.152Z,104
2018-11-02T06:24:30.421Z,124
2018-11-02T06:25:42.522Z,132
2018-11-02T06:29:19.132Z,176
2018-11-02T06:30:31.417Z,176
2018-11-02T06:31:43.596Z,176
2018-11-02T06:32:55.787Z,192
2018-11-02T06:34:07.897Z,212
2018-11-02T06:35:20.090Z,220
2018-11-02T06:36:32.286Z,216
2018-11-02T06:37:44.586Z,216
2018-11-02T06:38:56.677Z,216
2018-11-02T06:40:08.969Z,232
2018-11-02T06:41:21.152Z,248
2018-11-02T06:42:33.328Z,252
2018-11-02T06:43:45.552Z,264
2018-11-02T06:44:57.661Z,276
2018-11-02T06:46:09.935Z,304
2018-11-02T06:47:22.118Z,324
2018-11-02T06:48:34.339Z,332
2018-11-02T06:49:46.519Z,356
2018-11-02T06:50:58.738Z,320
2018-11-02T06:52:10.951Z,252
2018-11-02T06:53:23.033Z,232
2018-11-02T06:54:35.306Z,212
2018-11-02T06:55:47.493Z,204
2018-11-02T06:57:01.288Z,184
2018-11-02T06:58:11.797Z,176
2018-11-02T06:59:24.086Z,148
2018-11-02T07:00:36.297Z,176
2018-11-02T07:01:48.533Z,192
2018-11-02T07:03:00.585Z,228
2018-11-02T07:05:25.080Z,200
2018-11-02T07:06:37.250Z,124
2018-11-02T07:07:50.359Z,96
2018-11-02T07:09:01.558Z,88
2018-11-02T07:10:13.830Z,84
2018-11-02T07:11:25.952Z,104
2018-11-02T07:12:38.232Z,108
2018-11-02T07:13:50.392Z,112
2018-11-02T07:17:27.031Z,184
2018-11-02T07:18:39.122Z,212
2018-11-02T07:19:51.329Z,208
2018-11-02T07:21:03.510Z,216
2018-11-02T07:22:15.791Z,328
2018-11-02T07:23:27.892Z,392
2018-11-02T07:24:40.088Z,568
2018-11-02T07:25:52.390Z,996
2018-11-02T07:27:04.571Z,1064
2018-11-02T07:28:16.778Z,1596
2018-11-02T07:29:28.957Z,1084
2018-11-02T07:30:41.180Z,964
2018-11-02T07:31:53.396Z,848
2018-11-02T07:33:05.485Z,908
2018-11-02T07:34:17.755Z,1008
2018-11-02T07:35:29.867Z,1128
2018-11-02T07:36:42.129Z,820
2018-11-02T07:37:54.317Z,592
2018-11-02T07:39:06.439Z,496
2018-11-02T07:41:30.939Z,576
2018-11-02T07:42:43.054Z,808
2018-11-02T07:43:55.320Z,948
2018-11-02T07:45:07.491Z,688
2018-11-02T07:46:19.624Z,1000
2018-11-02T07:47:31.897Z,1292
2018-11-02T07:48:43.995Z,1244
2018-11-02T07:49:56.291Z,1468
2018-11-02T07:51:08.385Z,1492
2018-11-02T07:53:32.877Z,1896
2018-11-02T07:54:45.059Z,2312
2018-11-02T07:55:57.263Z,2388
2018-11-02T07:57:09.462Z,2460
2018-11-02T07:58:21.571Z,2544
2018-11-02T07:59:33.785Z,2592
2018-11-02T08:00:46.031Z,2668
2018-11-02T08:01:58.235Z,2836
2018-11-02T08:05:34.808Z,2452
2018-11-02T08:06:46.922Z,2684
2018-11-02T08:07:59.133Z,2316
2018-11-02T08:09:11.454Z,2268
2018-11-02T08:10:23.584Z,2436
2018-11-02T08:11:35.701Z,2292
2018-11-02T08:12:47.985Z,1780
2018-11-02T08:14:00.215Z,1788
2018-11-02T08:15:12.390Z,2360
2018-11-02T08:16:24.565Z,2616
2018-11-02T08:17:36.694Z,2676
2018-11-02T08:18:49.019Z,2796
2018-11-02T08:20:01.074Z,3360
2018-11-02T08:21:13.438Z,3108
2018-11-02T08:22:25.556Z,3572
2018-11-02T08:23:37.745Z,3836
2018-11-02T08:24:49.858Z,3412
2018-11-02T08:26:02.045Z,3488
2018-11-02T08:27:14.325Z,3984
2018-11-02T08:29:38.692Z,3304
2018-11-02T08:30:50.843Z,2616
2018-11-02T08:32:03.116Z,2604
2018-11-02T08:33:15.237Z,3200
2018-11-02T08:34:27.494Z,4312
2018-11-02T08:35:39.688Z,5032
2018-11-02T08:36:51.917Z,4372
2018-11-02T08:38:04.003Z,3296
2018-11-02T08:39:16.194Z,2908
2018-11-02T08:41:40.669Z,3760
2018-11-02T08:42:52.794Z,4276
2018-11-02T08:44:05.066Z,3732
2018-11-02T08:45:17.282Z,2996
2018-11-02T08:46:29.463Z,2792
2018-11-02T08:47:41.578Z,2412
2018-11-02T08:48:53.769Z,2352
2018-11-02T08:50:05.966Z,2532
2018-11-02T08:51:18.259Z,2864
2018-11-02T08:53:42.614Z,2888
2018-11-02T08:54:54.733Z,3324
2018-11-02T08:56:07.014Z,4420
2018-11-02T08:57:19.234Z,4556
2018-11-02T08:58:31.406Z,7124
2018-11-02T08:59:43.671Z,8676
2018-11-02T09:00:56.324Z,7436
2018-11-02T09:02:07.997Z,6392
2018-11-02T09:03:20.203Z,5128
2018-11-02T09:05:44.597Z,5176
2018-11-02T09:06:56.781Z,7360
2018-11-02T09:08:08.989Z,6748
2018-11-02T09:09:21.111Z,6308
2018-11-02T09:10:33.280Z,6400
2018-11-02T09:11:45.567Z,6636
2018-11-02T09:12:57.737Z,5188
2018-11-02T09:14:09.858Z,5916
2018-11-02T09:15:22.077Z,4728
2018-11-02T09:17:46.536Z,5212
2018-11-02T09:18:58.643Z,5124
2018-11-02T09:20:10.915Z,4260
2018-11-02T09:21:23.043Z,4760
2018-11-02T09:22:35.251Z,4376
2018-11-02T09:23:47.441Z,4096
2018-11-02T09:24:59.654Z,3960
2018-11-02T09:26:11.890Z,4556
2018-11-02T09:27:24.102Z,5412
2018-11-02T09:28:36.379Z,6080
2018-11-02T09:29:48.484Z,6476
2018-11-02T09:31:00.678Z,6760
2018-11-02T09:32:13.043Z,7524
2018-11-02T09:33:25.080Z,9184
2018-11-02T09:34:37.261Z,8944
2018-11-02T09:35:49.384Z,9440
2018-11-02T09:37:01.671Z,8232
2018-11-02T09:38:13.767Z,7944
2018-11-02T09:39:26.057Z,8048
2018-11-02T09:41:50.436Z,8048
2018-11-02T09:43:02.677Z,8712
2018-11-02T09:44:14.816Z,7936
2018-11-02T09:45:26.938Z,7756
2018-11-02T09:46:39.146Z,7652
2018-11-02T09:47:51.431Z,7832
2018-11-02T09:49:03.607Z,7952
2018-11-02T09:50:15.813Z,6832
2018-11-02T09:51:28.046Z,8272
2018-11-02T09:53:52.381Z,9836
2018-11-02T09:55:04.575Z,8360
2018-11-02T09:56:16.758Z,7516
2018-11-02T09:57:28.990Z,6704
2018-11-02T09:58:41.067Z,7088
2018-11-02T09:59:53.348Z,7416
2018-11-02T10:01:05.538Z,5884
2018-11-02T10:02:17.775Z,5460
2018-11-02T10:03:29.959Z,6152
2018-11-02T10:04:42.081Z,6040
2018-11-02T10:05:54.363Z,5808
2018-11-02T10:07:06.450Z,5456
2018-11-02T10:08:18.721Z,3248
2018-11-02T10:09:30.851Z,2912
2018-11-02T10:10:43.053Z,2368
2018-11-02T10:11:55.243Z,2564
2018-11-02T10:13:07.603Z,2940
2018-11-02T10:14:19.640Z,3048
2018-11-02T10:15:31.911Z,3184
2018-11-02T10:17:56.312Z,4112
2018-11-02T10:19:08.493Z,4416
2018-11-02T10:20:20.699Z,4444
2018-11-02T10:21:32.870Z,3792
2018-11-02T10:22:44.986Z,4156
2018-11-02T10:23:57.277Z,4364
2018-11-02T10:25:09.387Z,4488
2018-11-02T10:26:21.594Z,4476
2018-11-02T10:27:33.871Z,4640
2018-11-02T10:29:58.232Z,4656
2018-11-02T10:31:10.442Z,4280
2018-11-02T10:32:22.717Z,4120
2018-11-02T10:33:34.886Z,3952
2018-11-02T10:34:47.058Z,3816
2018-11-02T10:35:59.225Z,3996
2018-11-02T10:37:11.333Z,3912
2018-11-02T10:38:24.239Z,4132
2018-11-02T10:39:35.804Z,4540
2018-11-02T10:42:00.208Z,5492
2018-11-02T10:43:12.416Z,5536
2018-11-02T10:44:24.521Z,5252
2018-11-02T10:45:36.754Z,4836
2018-11-02T10:46:48.909Z,5092
2018-11-02T10:48:01.334Z,5384
2018-11-02T10:49:16.073Z,5636
2018-11-02T10:50:25.687Z,6040
2018-11-02T10:51:37.783Z,6672
2018-11-02T10:54:02.094Z,8100
2018-11-02T10:55:14.379Z,8632
2018-11-02T10:56:26.553Z,8436
2018-11-02T10:57:38.808Z,7728
2018-11-02T10:58:50.924Z,7468
2018-11-02T11:00:03.134Z,8112
2018-11-02T11:01:15.236Z,9296
2018-11-02T11:02:27.542Z,10020
2018-11-02T11:03:39.711Z,9900
2018-11-02T11:06:04.125Z,7824
2018-11-02T11:07:16.212Z,6640
2018-11-02T11:08:28.518Z,6128
2018-11-02T11:09:40.614Z,5952
2018-11-02T11:10:52.833Z,5684
2018-11-02T11:12:05.117Z,5304
2018-11-02T11:13:17.274Z,5036
2018-11-02T11:14:29.468Z,4740
2018-11-02T11:15:41.672Z,4828
2018-11-02T11:18:05.973Z,5160
2018-11-02T11:19:18.270Z,5260
2018-11-02T11:20:30.444Z,5228
2018-11-02T11:21:42.577Z,4992
2018-11-02T11:22:54.890Z,4732
2018-11-02T11:24:07.817Z,3680
2018-11-02T11:25:19.240Z,2660
2018-11-02T11:26:31.350Z,2160
2018-11-02T11:27:46.459Z,2048
2018-11-02T11:30:08.037Z,2384
2018-11-02T11:31:20.272Z,2468
2018-11-02T11:32:32.529Z,2176
2018-11-02T11:33:44.618Z,1908
2018-11-02T11:34:56.711Z,1820
2018-11-02T11:36:09.008Z,2052
2018-11-02T11:37:21.109Z,2096
2018-11-02T11:38:33.392Z,2116
2018-11-02T11:39:45.877Z,2376
2018-11-02T11:42:09.982Z,3924
2018-11-02T11:43:22.084Z,5320
2018-11-02T11:44:34.380Z,7016
2018-11-02T11:45:46.568Z,8140
2018-11-02T11:46:58.753Z,9744
2018-11-02T11:48:10.896Z,11024
2018-11-02T11:49:23.144Z,11452
2018-11-02T11:50:35.353Z,10748
2018-11-02T11:51:47.556Z,9620
2018-11-02T11:52:59.687Z,8412
2018-11-02T11:54:11.938Z,7172
2018-11-02T11:55:24.076Z,6364
2018-11-02T11:56:37.187Z,6144
2018-11-02T11:57:48.522Z,5832
2018-11-02T11:59:00.735Z,5300
2018-11-02T12:00:12.849Z,4952
2018-11-02T12:01:25.048Z,4672
2018-11-02T12:02:37.298Z,4868
2018-11-02T12:03:49.492Z,4648
2018-11-02T12:06:13.887Z,3880
2018-11-02T12:07:26.097Z,3292
2018-11-02T12:08:38.193Z,3224
2018-11-02T12:09:50.478Z,3992
2018-11-02T12:11:02.702Z,4172
2018-11-02T12:12:14.893Z,4096
2018-11-02T12:13:27.096Z,4088
2018-11-02T12:14:39.312Z,4216
2018-11-02T12:15:51.446Z,4612
2018-11-02T12:18:15.856Z,6376
2018-11-02T12:19:28.054Z,8280
2018-11-02T12:20:40.227Z,10820
2018-11-02T12:21:52.433Z,9740
2018-11-02T12:23:04.625Z,10004
2018-11-02T12:24:16.815Z,9672
2018-11-02T12:25:29.021Z,10432
2018-11-02T12:26:41.246Z,10908
2018-11-02T12:27:53.400Z,11180
2018-11-02T12:30:17.709Z,12544
2018-11-02T12:31:29.920Z,15840
2018-11-02T12:32:42.119Z,18208
2018-11-02T12:33:54.414Z,14848
2018-11-02T12:35:06.618Z,11760
2018-11-02T12:36:18.715Z,7844
2018-11-02T12:37:30.894Z,6668
2018-11-02T12:38:43.178Z,6356
2018-11-02T12:39:55.286Z,5900
2018-11-02T12:42:19.772Z,7012
2018-11-02T12:43:31.976Z,6920
2018-11-02T12:44:44.151Z,4788
2018-11-02T12:45:56.277Z,4584
2018-11-02T12:47:08.458Z,6208
2018-11-02T12:48:20.655Z,6912
2018-11-02T12:49:32.935Z,7632
2018-11-02T12:50:45.136Z,9612
2018-11-02T12:51:57.242Z,10732
2018-11-02T12:53:09.458Z,9292
2018-11-02T12:54:21.726Z,8944
2018-11-02T12:55:33.860Z,9704
2018-11-02T12:56:46.136Z,8196
2018-11-02T12:57:58.293Z,6540
2018-11-02T12:59:10.486Z,5224
2018-11-02T13:00:22.731Z,5428
2018-11-02T13:01:34.803Z,5316
2018-11-02T13:02:46.996Z,4636
2018-11-02T13:03:59.342Z,4680
2018-11-02T13:06:23.618Z,4420
2018-11-02T13:07:35.795Z,4096
2018-11-02T13:08:47.972Z,4036
2018-11-02T13:10:00.273Z,4396
2018-11-02T13:11:12.474Z,5160
2018-11-02T13:12:24.590Z,5508
2018-11-02T13:13:36.860Z,4012
2018-11-02T13:14:48.974Z,3456
2018-11-02T13:16:01.144Z,3156
2018-11-02T13:18:25.548Z,3028
2018-11-02T13:19:38.349Z,3036
2018-11-02T13:20:50.047Z,2996
2018-11-02T13:22:02.149Z,2852
2018-11-02T13:23:14.400Z,2848
2018-11-02T13:24:26.640Z,2704
2018-11-02T13:25:38.708Z,2520
2018-11-02T13:26:50.980Z,2084
2018-11-02T13:28:03.199Z,1756
2018-11-02T13:29:15.528Z,1592
2018-11-02T13:30:27.508Z,1452
2018-11-02T13:31:39.756Z,1340
2018-11-02T13:32:51.899Z,1308
2018-11-02T13:34:04.166Z,1308
2018-11-02T13:35:16.360Z,1304
2018-11-02T13:36:28.661Z,1228
2018-11-02T13:37:40.750Z,1072
2018-11-02T13:38:52.960Z,964
2018-11-02T13:40:05.056Z,928
2018-11-02T13:41:17.246Z,904
2018-11-02T13:42:29.524Z,892
2018-11-02T13:43:41.655Z,900
2018-11-02T13:44:53.909Z,932
2018-11-02T13:46:06.030Z,988
2018-11-02T13:47:18.375Z,1048
2018-11-02T13:48:30.538Z,1100
2018-11-02T13:49:42.628Z,1164
2018-11-02T13:50:54.892Z,1240
2018-11-02T13:52:09.163Z,1352
2018-11-02T13:53:19.292Z,1444
2018-11-02T13:54:31.478Z,1420
2018-11-02T13:55:43.799Z,1344
2018-11-02T13:56:55.831Z,1388
2018-11-02T13:58:08.099Z,1564
2018-11-02T13:59:20.177Z,1820
2018-11-02T14:00:32.471Z,2100
2018-11-02T14:01:44.618Z,2464
2018-11-02T14:02:56.875Z,2752
2018-11-02T14:04:09.042Z,2992
2018-11-02T14:06:33.432Z,3224
2018-11-02T14:07:45.656Z,3168
2018-11-02T14:08:57.852Z,3184
2018-11-02T14:10:10.024Z,3376
2018-11-02T14:11:22.208Z,3456
2018-11-02T14:12:34.384Z,3536
2018-11-02T14:13:46.554Z,3624
2018-11-02T14:14:58.814Z,3868
2018-11-02T14:16:11.024Z,4124
2018-11-02T14:18:35.388Z,4900
2018-11-02T14:19:47.608Z,4976
2018-11-02T14:20:59.725Z,4940
2018-11-02T14:22:15.289Z,4996
2018-11-02T14:23:24.112Z,5072
2018-11-02T14:24:36.305Z,4896
2018-11-02T14:25:48.570Z,4596
2018-11-02T14:27:00.841Z,4132
2018-11-02T14:28:12.953Z,3648
2018-11-02T14:29:25.149Z,3176
2018-11-02T14:30:37.394Z,2844
2018-11-02T14:31:49.596Z,2640
2018-11-02T14:33:01.764Z,2564
2018-11-02T14:34:13.934Z,2476
2018-11-02T14:35:26.143Z,2376
2018-11-02T14:36:38.346Z,2284
2018-11-02T14:37:50.525Z,2132
2018-11-02T14:39:02.741Z,2012
2018-11-02T14:40:15.029Z,1948
2018-11-02T14:42:39.305Z,1896
2018-11-02T14:43:51.414Z,1932
2018-11-02T14:45:03.607Z,1828
2018-11-02T14:46:15.883Z,1852
2018-11-02T14:47:28.117Z,1976
2018-11-02T14:48:40.297Z,1940
2018-11-02T14:49:52.505Z,2084
2018-11-02T14:51:04.592Z,2188
2018-11-02T14:52:16.883Z,2308
2018-11-02T14:54:41.307Z,2452
2018-11-02T14:55:53.371Z,2256
2018-11-02T14:57:05.561Z,2136
2018-11-02T14:58:17.937Z,2040
2018-11-02T14:59:29.968Z,1836
2018-11-02T15:00:42.260Z,1732
2018-11-02T15:03:06.586Z,1792
2018-11-02T15:04:18.828Z,1864
2018-11-02T15:05:30.959Z,1896
2018-11-02T15:06:43.206Z,1896
2018-11-02T15:07:56.449Z,1888
2018-11-02T15:09:07.559Z,1852
2018-11-02T15:10:19.797Z,1936
2018-11-02T15:11:32.022Z,1968
2018-11-02T15:12:44.100Z,1940
2018-11-02T15:13:56.325Z,1884
2018-11-02T15:15:08.485Z,1908
2018-11-02T15:16:20.770Z,1880
2018-11-02T15:18:45.071Z,1820
2018-11-02T15:19:57.360Z,1792
2018-11-02T15:21:09.533Z,1712
2018-11-02T15:22:21.724Z,1636
2018-11-02T15:23:33.836Z,1536
2018-11-02T15:24:46.065Z,1384
2018-11-02T15:25:58.336Z,1228
2018-11-02T15:27:10.502Z,1168
2018-11-02T15:28:22.689Z,1128
2018-11-02T15:30:47.095Z,1000
2018-11-02T15:31:59.278Z,956
2018-11-02T15:33:11.388Z,860
2018-11-02T15:34:23.664Z,792
2018-11-02T15:35:35.884Z,752
2018-11-02T15:36:48.046Z,736
2018-11-02T15:38:00.162Z,716
2018-11-02T15:39:12.445Z,676
2018-11-02T15:40:24.627Z,648
2018-11-02T15:42:49.111Z,600
2018-11-02T15:44:01.153Z,548
2018-11-02T15:45:13.417Z,496
2018-11-02T15:46:25.608Z,448
2018-11-02T15:47:37.793Z,408
2018-11-02T15:48:49.919Z,380
2018-11-02T15:50:02.194Z,356
2018-11-02T15:51:14.328Z,328
2018-11-02T15:52:26.489Z,300
2018-11-02T15:54:50.958Z,256
2018-11-02T15:56:03.172Z,232
2018-11-02T15:57:15.371Z,208
2018-11-02T15:58:27.475Z,188
2018-11-02T15:59:39.728Z,168
2018-11-02T16:00:52.016Z,152
2018-11-02T16:02:04.122Z,132
2018-11-02T16:03:16.229Z,120
2018-11-02T16:04:28.495Z,104
2018-11-02T16:06:52.896Z,80
2018-11-02T16:08:05.087Z,72
2018-11-02T16:09:17.218Z,64
2018-11-02T16:10:29.526Z,56
2018-11-02T16:11:41.759Z,44
2018-11-02T16:12:53.890Z,40
2018-11-02T16:14:05.968Z,36
2018-11-02T16:15:18.171Z,28
2018-11-02T16:16:30.390Z,28
2018-11-02T16:18:54.779Z,16
2018-11-02T16:20:07.119Z,12
2018-11-02T16:21:19.163Z,8
2018-11-02T16:22:31.431Z,8
2018-11-02T16:23:43.593Z,4
2018-11-02T16:24:55.715Z,8
2018-11-02T16:26:07.997Z,8
2018-11-02T16:27:20.109Z,4
